createdAt,value
2023-04-09T00:00:33.524Z,55.77
2023-04-09T00:01:23.543Z,55.81
2023-04-09T00:02:13.685Z,55.97
2023-04-09T00:03:03.987Z,56.00
2023-04-09T00:03:54.069Z,55.98
2023-04-09T00:04:44.110Z,55.91
2023-04-09T00:05:34.100Z,55.86
2023-04-09T00:06:25.245Z,55.77
2023-04-09T00:07:14.250Z,55.91
2023-04-09T00:08:04.221Z,55.89
2023-04-09T00:08:54.445Z,56.03
2023-04-09T00:09:44.312Z,56.18
2023-04-09T00:10:34.401Z,56.40
2023-04-09T00:11:24.416Z,56.20
2023-04-09T00:12:14.534Z,56.01
2023-04-09T00:13:04.547Z,56.20
2023-04-09T00:13:54.625Z,56.40
2023-04-09T00:14:44.639Z,56.47
2023-04-09T00:15:34.744Z,56.37
2023-04-09T00:16:24.790Z,56.34
2023-04-09T00:17:14.840Z,56.27
2023-04-09T00:18:05.021Z,56.24
2023-04-09T00:18:55.212Z,56.32
2023-04-09T00:19:45.265Z,56.38
2023-04-09T00:20:35.362Z,56.46
2023-04-09T00:21:25.373Z,56.65
2023-04-09T00:22:15.453Z,56.59
2023-04-09T00:23:05.534Z,56.38
2023-04-09T00:23:55.583Z,56.39
2023-04-09T00:24:45.648Z,56.20
2023-04-09T00:25:35.739Z,56.17
2023-04-09T00:26:25.753Z,56.30
2023-04-09T00:27:15.818Z,56.47
2023-04-09T00:28:05.972Z,56.55
2023-04-09T00:28:56.034Z,56.52
2023-04-09T00:29:46.101Z,56.33
2023-04-09T00:30:36.469Z,56.43
2023-04-09T00:31:26.521Z,56.53
2023-04-09T00:32:16.574Z,56.58
2023-04-09T00:33:06.741Z,56.41
2023-04-09T00:33:56.690Z,56.26
2023-04-09T00:34:46.754Z,56.04
2023-04-09T00:35:36.844Z,55.93
2023-04-09T00:36:27.121Z,55.82
2023-04-09T00:37:16.950Z,55.96
2023-04-09T00:38:07.000Z,56.01
2023-04-09T00:38:57.084Z,56.10
2023-04-09T00:39:47.356Z,56.02
2023-04-09T00:40:37.446Z,55.94
2023-04-09T00:41:27.451Z,55.87
2023-04-09T00:42:17.513Z,55.77
2023-04-09T00:43:07.587Z,55.77
2023-04-09T00:43:57.652Z,55.79
2023-04-09T00:44:47.719Z,55.82
2023-04-09T00:45:37.845Z,55.82
2023-04-09T00:46:27.846Z,55.71
2023-04-09T00:47:17.917Z,55.73
2023-04-09T00:48:07.948Z,55.64
2023-04-09T00:48:58.187Z,55.78
2023-04-09T00:49:48.261Z,55.87
2023-04-09T00:50:38.340Z,55.80
2023-04-09T00:51:28.376Z,55.70
2023-04-09T00:52:18.431Z,55.75
2023-04-09T00:53:08.515Z,55.67
2023-04-09T00:53:58.575Z,55.62
2023-04-09T00:54:48.663Z,55.81
2023-04-09T00:55:38.731Z,55.88
2023-04-09T00:56:28.756Z,55.90
2023-04-09T00:57:18.835Z,55.87
2023-04-09T00:58:09.039Z,55.84
2023-04-09T00:58:59.121Z,55.74
2023-04-09T00:59:49.139Z,55.85
2023-04-09T01:00:39.234Z,55.85
2023-04-09T01:01:29.312Z,56.03
2023-04-09T01:02:19.389Z,56.16
2023-04-09T01:03:09.528Z,56.02
2023-04-09T01:03:59.394Z,55.98
2023-04-09T01:04:49.455Z,56.01
2023-04-09T01:05:39.542Z,56.04
2023-04-09T01:06:29.566Z,56.03
2023-04-09T01:07:19.896Z,56.03
2023-04-09T01:08:09.958Z,56.32
2023-04-09T01:09:00.044Z,56.39
2023-04-09T01:09:50.335Z,56.53
2023-04-09T01:10:40.411Z,56.61
2023-04-09T01:11:30.430Z,56.70
2023-04-09T01:12:20.506Z,56.70
2023-04-09T01:13:10.572Z,56.74
2023-04-09T01:14:00.643Z,56.73
2023-04-09T01:14:50.703Z,56.80
2023-04-09T01:15:40.803Z,56.85
2023-04-09T01:16:30.859Z,56.95
2023-04-09T01:17:20.910Z,56.94
2023-04-09T01:18:10.963Z,56.95
2023-04-09T01:19:01.116Z,56.92
2023-04-09T01:19:51.183Z,56.79
2023-04-09T01:20:41.265Z,56.79
2023-04-09T01:21:31.285Z,56.86
2023-04-09T01:22:21.360Z,56.92
2023-04-09T01:23:11.382Z,56.93
2023-04-09T01:24:01.453Z,56.87
2023-04-09T01:24:51.515Z,56.88
2023-04-09T01:25:41.632Z,56.90
2023-04-09T01:26:31.626Z,56.81
2023-04-09T01:27:21.706Z,56.57
2023-04-09T01:28:11.932Z,56.76
2023-04-09T01:29:02.008Z,56.92
2023-04-09T01:29:52.065Z,56.57
2023-04-09T01:30:42.212Z,56.68
2023-04-09T01:31:32.185Z,56.74
2023-04-09T01:32:22.271Z,56.70
2023-04-09T01:33:12.269Z,56.72
2023-04-09T01:34:02.346Z,56.75
2023-04-09T01:34:52.401Z,56.97
2023-04-09T01:35:42.507Z,57.04
2023-04-09T01:36:32.526Z,57.09
2023-04-09T01:37:22.595Z,57.13
2023-04-09T01:38:12.667Z,57.15
2023-04-09T01:39:02.754Z,57.13
2023-04-09T01:39:52.792Z,57.15
2023-04-09T01:40:42.885Z,57.21
2023-04-09T01:41:32.923Z,57.21
2023-04-09T01:42:22.954Z,57.23
2023-04-09T01:43:13.021Z,57.23
2023-04-09T01:44:03.269Z,57.15
2023-04-09T01:44:53.289Z,57.17
2023-04-09T01:45:43.422Z,56.98
2023-04-09T01:46:33.473Z,56.78
2023-04-09T01:47:23.521Z,56.68
2023-04-09T01:48:13.567Z,56.71
2023-04-09T01:49:03.638Z,56.82
2023-04-09T01:49:53.703Z,56.89
2023-04-09T01:50:43.785Z,57.01
2023-04-09T01:51:33.819Z,57.05
2023-04-09T01:52:23.866Z,57.12
2023-04-09T01:53:14.051Z,57.10
2023-04-09T01:54:04.118Z,57.09
2023-04-09T01:54:54.176Z,57.11
2023-04-09T01:55:44.278Z,57.16
2023-04-09T01:56:34.296Z,57.20
2023-04-09T01:57:24.401Z,57.14
2023-04-09T01:58:14.396Z,57.05
2023-04-09T01:59:04.468Z,57.17
2023-04-09T01:59:54.525Z,57.23
2023-04-09T02:00:44.618Z,57.25
2023-04-09T02:01:34.708Z,57.09
2023-04-09T02:02:25.044Z,56.88
2023-04-09T02:03:15.066Z,56.80
2023-04-09T02:04:05.046Z,56.70
2023-04-09T02:04:55.069Z,56.71
2023-04-09T02:05:45.155Z,56.83
2023-04-09T02:06:35.167Z,56.93
2023-04-09T02:07:25.232Z,56.84
2023-04-09T02:08:15.293Z,56.71
2023-04-09T02:09:05.376Z,56.58
2023-04-09T02:09:55.428Z,56.66
2023-04-09T02:10:45.524Z,56.63
2023-04-09T02:11:35.777Z,56.31
2023-04-09T02:12:25.865Z,56.14
2023-04-09T02:13:15.911Z,56.11
2023-04-09T02:14:06.195Z,56.04
2023-04-09T02:14:56.254Z,56.01
2023-04-09T02:15:46.371Z,56.05
2023-04-09T02:16:36.410Z,56.12
2023-04-09T02:17:26.446Z,56.08
2023-04-09T02:18:16.497Z,56.08
2023-04-09T02:19:06.566Z,56.14
2023-04-09T02:19:56.631Z,56.29
2023-04-09T02:20:46.718Z,56.27
2023-04-09T02:21:36.728Z,56.30
2023-04-09T02:22:26.808Z,56.32
2023-04-09T02:23:17.038Z,56.26
2023-04-09T02:24:07.110Z,56.32
2023-04-09T02:24:57.174Z,56.58
2023-04-09T02:25:47.264Z,56.56
2023-04-09T02:26:37.301Z,56.41
2023-04-09T02:27:27.363Z,56.53
2023-04-09T02:28:17.457Z,56.65
2023-04-09T02:29:07.504Z,56.77
2023-04-09T02:29:57.577Z,56.95
2023-04-09T02:30:48.307Z,56.97
2023-04-09T02:31:37.679Z,56.93
2023-04-09T02:32:28.061Z,56.88
2023-04-09T02:33:18.078Z,56.83
2023-04-09T02:34:08.156Z,56.72
2023-04-09T02:34:58.436Z,56.87
2023-04-09T02:35:48.551Z,56.89
2023-04-09T02:36:38.557Z,56.84
2023-04-09T02:37:28.596Z,56.85
2023-04-09T02:38:18.660Z,56.99
2023-04-09T02:39:08.729Z,56.87
2023-04-09T02:39:58.795Z,56.98
2023-04-09T02:40:48.880Z,57.08
2023-04-09T02:41:38.890Z,57.04
2023-04-09T02:42:28.987Z,57.09
2023-04-09T02:43:19.023Z,57.21
2023-04-09T02:44:09.291Z,57.24
2023-04-09T02:44:59.332Z,57.33
2023-04-09T02:45:49.419Z,57.37
2023-04-09T02:46:39.731Z,57.39
2023-04-09T02:47:29.783Z,57.31
2023-04-09T02:48:19.818Z,57.32
2023-04-09T02:49:10.145Z,57.33
2023-04-09T02:50:00.242Z,57.31
2023-04-09T02:50:50.295Z,57.25
2023-04-09T02:51:40.319Z,57.34
2023-04-09T02:52:30.405Z,57.33
2023-04-09T02:53:20.418Z,57.29
2023-04-09T02:54:10.486Z,57.36
2023-04-09T02:55:00.570Z,57.41
2023-04-09T02:55:50.635Z,57.38
2023-04-09T02:56:40.684Z,57.47
2023-04-09T02:57:30.689Z,57.46
2023-04-09T02:58:21.056Z,57.43
2023-04-09T02:59:11.108Z,57.44
2023-04-09T03:00:01.144Z,57.48
2023-04-09T03:00:51.205Z,57.41
2023-04-09T03:01:41.339Z,57.43
2023-04-09T03:02:31.408Z,57.48
2023-04-09T03:03:21.548Z,57.52
2023-04-09T03:04:11.525Z,57.52
2023-04-09T03:05:01.472Z,57.53
2023-04-09T03:05:51.544Z,57.56
2023-04-09T03:06:41.564Z,57.64
2023-04-09T03:07:31.638Z,57.66
2023-04-09T03:08:21.705Z,57.62
2023-04-09T03:09:11.758Z,57.58
2023-04-09T03:10:01.798Z,57.59
2023-04-09T03:10:51.886Z,57.60
2023-04-09T03:11:41.930Z,57.59
2023-04-09T03:12:31.985Z,57.52
2023-04-09T03:13:22.046Z,57.42
2023-04-09T03:14:12.286Z,57.50
2023-04-09T03:15:02.361Z,57.54
2023-04-09T03:15:52.521Z,57.54
2023-04-09T03:16:42.747Z,57.50
2023-04-09T03:17:32.860Z,57.48
2023-04-09T03:18:22.848Z,57.33
2023-04-09T03:19:12.930Z,57.29
2023-04-09T03:20:03.000Z,57.32
2023-04-09T03:20:53.075Z,57.36
2023-04-09T03:21:43.145Z,57.43
2023-04-09T03:22:33.166Z,57.44
2023-04-09T03:23:23.222Z,57.42
2023-04-09T03:24:13.301Z,57.44
2023-04-09T03:25:03.351Z,57.43
2023-04-09T03:25:53.670Z,57.43
2023-04-09T03:26:43.705Z,57.44
2023-04-09T03:27:33.758Z,57.32
2023-04-09T03:28:24.090Z,57.16
2023-04-09T03:29:14.151Z,57.24
2023-04-09T03:30:04.225Z,57.16
2023-04-09T03:30:54.564Z,57.11
2023-04-09T03:31:44.601Z,57.02
2023-04-09T03:32:34.675Z,56.95
2023-04-09T03:33:24.663Z,56.96
2023-04-09T03:34:14.741Z,57.04
2023-04-09T03:35:04.798Z,57.05
2023-04-09T03:35:54.917Z,57.07
2023-04-09T03:36:44.947Z,57.27
2023-04-09T03:37:34.973Z,57.33
2023-04-09T03:38:25.000Z,57.28
2023-04-09T03:39:15.072Z,57.11
2023-04-09T03:40:05.348Z,56.95
2023-04-09T03:40:55.433Z,56.74
2023-04-09T03:41:45.457Z,56.76
2023-04-09T03:42:35.535Z,56.96
2023-04-09T03:43:25.604Z,57.07
2023-04-09T03:44:15.668Z,57.24
2023-04-09T03:45:05.738Z,57.36
2023-04-09T03:45:55.825Z,57.26
2023-04-09T03:46:45.870Z,56.77
2023-04-09T03:47:35.918Z,56.60
2023-04-09T03:48:25.950Z,56.45
2023-04-09T03:49:16.217Z,56.33
2023-04-09T03:50:06.261Z,56.24
2023-04-09T03:50:56.364Z,56.17
2023-04-09T03:51:46.653Z,56.15
2023-04-09T03:52:36.722Z,56.15
2023-04-09T03:53:26.784Z,56.23
2023-04-09T03:54:16.870Z,56.30
2023-04-09T03:55:06.923Z,56.37
2023-04-09T03:55:57.010Z,56.19
2023-04-09T03:56:47.042Z,56.09
2023-04-09T03:57:37.115Z,56.27
2023-04-09T03:58:27.177Z,56.37
2023-04-09T03:59:17.258Z,56.44
2023-04-09T04:00:07.290Z,56.37
2023-04-09T04:00:57.581Z,56.19
2023-04-09T04:01:47.668Z,56.15
2023-04-09T04:02:37.851Z,56.26
2023-04-09T04:03:27.817Z,56.26
2023-04-09T04:04:18.222Z,56.42
2023-04-09T04:05:07.950Z,56.50
2023-04-09T04:05:58.047Z,56.52
2023-04-09T04:06:48.070Z,56.70
2023-04-09T04:07:38.148Z,56.83
2023-04-09T04:08:28.211Z,56.74
2023-04-09T04:09:18.282Z,56.63
2023-04-09T04:10:08.349Z,56.44
2023-04-09T04:10:58.431Z,56.47
2023-04-09T04:11:48.460Z,56.53
2023-04-09T04:12:38.537Z,56.57
2023-04-09T04:13:28.652Z,56.84
2023-04-09T04:14:18.820Z,56.94
2023-04-09T04:15:08.890Z,56.96
2023-04-09T04:15:58.999Z,56.97
2023-04-09T04:16:49.257Z,56.94
2023-04-09T04:17:39.366Z,56.76
2023-04-09T04:18:29.381Z,56.72
2023-04-09T04:19:19.468Z,56.56
2023-04-09T04:20:09.522Z,56.65
2023-04-09T04:20:59.601Z,56.60
2023-04-09T04:21:49.622Z,56.57
2023-04-09T04:22:39.694Z,56.83
2023-04-09T04:23:29.725Z,56.91
2023-04-09T04:24:19.797Z,56.91
2023-04-09T04:25:09.852Z,57.06
2023-04-09T04:26:00.145Z,56.99
2023-04-09T04:26:50.137Z,56.88
2023-04-09T04:27:40.212Z,56.94
2023-04-09T04:28:30.532Z,56.97
2023-04-09T04:29:20.614Z,56.90
2023-04-09T04:30:10.666Z,57.06
2023-04-09T04:31:01.004Z,57.02
2023-04-09T04:31:51.052Z,56.89
2023-04-09T04:32:41.110Z,56.71
2023-04-09T04:33:31.150Z,56.76
2023-04-09T04:34:21.223Z,56.79
2023-04-09T04:35:11.327Z,56.81
2023-04-09T04:36:01.411Z,56.95
2023-04-09T04:36:51.409Z,57.06
2023-04-09T04:37:41.453Z,57.11
2023-04-09T04:38:31.519Z,57.21
2023-04-09T04:39:21.599Z,57.33
2023-04-09T04:40:11.865Z,57.43
2023-04-09T04:41:01.961Z,57.59
2023-04-09T04:41:51.963Z,57.55
2023-04-09T04:42:42.045Z,57.56
2023-04-09T04:43:32.099Z,57.52
2023-04-09T04:44:22.179Z,57.56
2023-04-09T04:45:12.205Z,57.64
2023-04-09T04:46:02.375Z,57.68
2023-04-09T04:46:52.326Z,57.61
2023-04-09T04:47:42.440Z,57.66
2023-04-09T04:48:32.434Z,57.54
2023-04-09T04:49:22.508Z,57.45
2023-04-09T04:50:12.563Z,57.33
2023-04-09T04:51:02.672Z,57.20
2023-04-09T04:51:52.684Z,57.26
2023-04-09T04:52:42.772Z,57.42
2023-04-09T04:53:32.797Z,57.57
2023-04-09T04:54:22.883Z,57.47
2023-04-09T04:55:12.935Z,57.41
2023-04-09T04:56:03.254Z,57.39
2023-04-09T04:56:53.268Z,57.56
2023-04-09T04:57:43.338Z,57.67
2023-04-09T04:58:33.409Z,57.58
2023-04-09T04:59:23.481Z,57.63
2023-04-09T05:00:13.549Z,57.63
2023-04-09T05:01:03.694Z,57.77
2023-04-09T05:01:53.697Z,57.65
2023-04-09T05:02:43.801Z,57.66
2023-04-09T05:03:33.805Z,57.61
2023-04-09T05:04:23.796Z,57.54
2023-04-09T05:05:14.138Z,57.46
2023-04-09T05:06:04.205Z,57.34
2023-04-09T05:06:54.273Z,57.39
2023-04-09T05:07:44.270Z,57.37
2023-04-09T05:08:34.338Z,57.50
2023-04-09T05:09:24.408Z,57.61
2023-04-09T05:10:14.476Z,57.71
2023-04-09T05:11:04.556Z,57.74
2023-04-09T05:11:54.581Z,57.79
2023-04-09T05:12:44.655Z,57.70
2023-04-09T05:13:34.703Z,57.68
2023-04-09T05:14:24.963Z,57.62
2023-04-09T05:15:14.979Z,57.67
2023-04-09T05:16:05.067Z,57.69
2023-04-09T05:16:55.157Z,57.63
2023-04-09T05:17:45.164Z,57.56
2023-04-09T05:18:35.218Z,57.55
2023-04-09T05:19:25.298Z,57.63
2023-04-09T05:20:15.314Z,57.65
2023-04-09T05:21:05.406Z,57.60
2023-04-09T05:21:55.420Z,57.66
2023-04-09T05:22:45.514Z,57.64
2023-04-09T05:23:35.814Z,57.61
2023-04-09T05:24:25.871Z,57.47
2023-04-09T05:25:15.974Z,57.46
2023-04-09T05:26:06.031Z,57.57
2023-04-09T05:26:56.052Z,57.60
2023-04-09T05:27:46.134Z,57.48
2023-04-09T05:28:36.204Z,57.51
2023-04-09T05:29:26.239Z,57.52
2023-04-09T05:30:16.289Z,57.62
2023-04-09T05:31:12.831Z,57.50
2023-04-09T05:31:56.403Z,57.42
2023-04-09T05:32:46.483Z,57.46
2023-04-09T05:33:36.550Z,57.36
2023-04-09T05:34:26.619Z,57.36
2023-04-09T05:35:16.686Z,57.36
2023-04-09T05:36:06.763Z,57.36
2023-04-09T05:36:56.812Z,57.25
2023-04-09T05:37:46.844Z,57.25
2023-04-09T05:38:36.941Z,57.31
2023-04-09T05:39:27.157Z,57.23
2023-04-09T05:40:17.217Z,57.01
2023-04-09T05:41:07.276Z,56.82
2023-04-09T05:41:57.355Z,57.12
2023-04-09T05:42:47.372Z,57.28
2023-04-09T05:43:37.446Z,57.39
2023-04-09T05:44:27.515Z,57.48
2023-04-09T05:45:17.590Z,57.51
2023-04-09T05:46:07.655Z,57.38
2023-04-09T05:46:57.701Z,57.53
2023-04-09T05:47:47.767Z,57.62
2023-04-09T05:48:38.045Z,57.55
2023-04-09T05:49:28.100Z,57.63
2023-04-09T05:50:18.164Z,57.71
2023-04-09T05:51:08.445Z,57.67
2023-04-09T05:51:58.555Z,57.77
2023-04-09T05:52:48.563Z,57.75
2023-04-09T05:53:38.642Z,57.83
2023-04-09T05:54:28.721Z,57.85
2023-04-09T05:55:18.739Z,57.74
2023-04-09T05:56:08.792Z,57.62
2023-04-09T05:56:58.879Z,57.67
2023-04-09T05:57:48.903Z,57.50
2023-04-09T05:58:38.979Z,57.28
2023-04-09T05:59:29.005Z,57.19
2023-04-09T06:00:19.341Z,57.29
2023-04-09T06:01:09.361Z,57.14
2023-04-09T06:01:59.513Z,57.14
2023-04-09T06:02:49.533Z,57.24
2023-04-09T06:03:39.720Z,57.28
2023-04-09T06:04:29.581Z,57.16
2023-04-09T06:05:19.615Z,57.19
2023-04-09T06:06:09.654Z,57.27
2023-04-09T06:06:59.738Z,57.24
2023-04-09T06:07:49.796Z,56.95
2023-04-09T06:08:39.873Z,57.06
2023-04-09T06:09:30.180Z,57.20
2023-04-09T06:10:20.272Z,57.00
2023-04-09T06:11:10.342Z,57.04
2023-04-09T06:12:00.617Z,57.05
2023-04-09T06:12:50.705Z,57.07
2023-04-09T06:13:40.767Z,57.28
2023-04-09T06:14:31.047Z,57.47
2023-04-09T06:15:21.173Z,57.60
2023-04-09T06:16:11.320Z,57.61
2023-04-09T06:17:01.511Z,57.45
2023-04-09T06:17:51.565Z,57.44
2023-04-09T06:18:41.603Z,57.30
2023-04-09T06:19:31.926Z,57.39
2023-04-09T06:20:22.001Z,57.47
2023-04-09T06:21:12.059Z,57.55
2023-04-09T06:22:02.089Z,57.45
2023-04-09T06:22:52.115Z,57.36
2023-04-09T06:23:42.182Z,57.34
2023-04-09T06:24:32.253Z,57.32
2023-04-09T06:25:22.315Z,57.21
2023-04-09T06:26:12.405Z,57.24
2023-04-09T06:27:02.473Z,57.35
2023-04-09T06:27:52.492Z,57.45
2023-04-09T06:28:42.815Z,57.50
2023-04-09T06:29:32.884Z,57.63
2023-04-09T06:30:22.954Z,57.68
2023-04-09T06:31:13.247Z,57.57
2023-04-09T06:32:03.289Z,57.39
2023-04-09T06:32:55.300Z,57.31
2023-04-09T06:33:43.364Z,57.05
2023-04-09T06:34:33.427Z,57.11
2023-04-09T06:35:23.497Z,56.82
2023-04-09T06:36:13.606Z,56.80
2023-04-09T06:37:03.661Z,57.10
2023-04-09T06:37:53.935Z,57.04
2023-04-09T06:38:44.009Z,57.03
2023-04-09T06:39:34.056Z,57.11
2023-04-09T06:40:24.082Z,57.27
2023-04-09T06:41:14.130Z,57.34
2023-04-09T06:42:04.243Z,57.41
2023-04-09T06:42:54.289Z,57.26
2023-04-09T06:43:44.322Z,57.11
2023-04-09T06:44:34.374Z,56.87
2023-04-09T06:45:24.433Z,57.02
2023-04-09T06:46:14.456Z,57.37
2023-04-09T06:47:04.789Z,57.48
2023-04-09T06:47:54.860Z,57.58
2023-04-09T06:48:44.896Z,57.67
2023-04-09T06:49:34.930Z,57.76
2023-04-09T06:50:25.010Z,57.87
2023-04-09T06:51:15.095Z,57.92
2023-04-09T06:52:05.091Z,57.93
2023-04-09T06:52:55.131Z,57.91
2023-04-09T06:53:45.225Z,58.04
2023-04-09T06:54:35.220Z,57.86
2023-04-09T06:55:25.291Z,57.67
2023-04-09T06:56:15.351Z,57.77
2023-04-09T06:57:05.448Z,57.85
2023-04-09T06:57:55.496Z,57.96
2023-04-09T06:58:45.559Z,57.96
2023-04-09T06:59:35.577Z,57.94
2023-04-09T07:00:25.648Z,58.03
2023-04-09T07:01:15.714Z,57.97
2023-04-09T07:02:05.918Z,57.91
2023-04-09T07:02:56.318Z,57.92
2023-04-09T07:03:46.156Z,57.82
2023-04-09T07:04:36.293Z,57.78
2023-04-09T07:05:26.222Z,57.87
2023-04-09T07:06:16.284Z,57.95
2023-04-09T07:07:06.363Z,58.03
2023-04-09T07:07:56.420Z,58.13
2023-04-09T07:08:46.489Z,58.08
2023-04-09T07:09:36.546Z,58.13
2023-04-09T07:10:26.715Z,58.16
2023-04-09T07:11:16.668Z,58.20
2023-04-09T07:12:06.947Z,58.13
2023-04-09T07:12:56.970Z,58.13
2023-04-09T07:13:47.060Z,58.29
2023-04-09T07:14:37.087Z,58.23
2023-04-09T07:15:27.177Z,58.03
2023-04-09T07:16:17.241Z,58.09
2023-04-09T07:17:07.255Z,58.13
2023-04-09T07:17:57.309Z,58.14
2023-04-09T07:18:47.345Z,58.28
2023-04-09T07:19:37.413Z,58.18
2023-04-09T07:20:27.485Z,58.05
2023-04-09T07:21:17.777Z,58.06
2023-04-09T07:22:07.883Z,57.94
2023-04-09T07:22:57.904Z,57.73
2023-04-09T07:23:47.968Z,57.70
2023-04-09T07:24:38.038Z,57.56
2023-04-09T07:25:28.137Z,57.77
2023-04-09T07:26:18.133Z,57.90
2023-04-09T07:27:08.220Z,57.95
2023-04-09T07:27:58.242Z,57.88
2023-04-09T07:28:48.342Z,57.86
2023-04-09T07:29:38.358Z,57.87
2023-04-09T07:30:28.635Z,57.88
2023-04-09T07:32:08.766Z,57.92
2023-04-09T07:32:58.806Z,57.92
2023-04-09T07:33:48.874Z,57.85
2023-04-09T07:34:38.897Z,58.03
2023-04-09T07:35:28.966Z,57.89
2023-04-09T07:36:19.038Z,57.94
2023-04-09T07:37:09.119Z,57.73
2023-04-09T07:37:59.138Z,57.81
2023-04-09T07:38:49.212Z,57.83
2023-04-09T07:39:39.235Z,57.98
2023-04-09T07:40:29.311Z,57.92
2023-04-09T07:41:19.376Z,57.84
2023-04-09T07:42:09.458Z,57.84
2023-04-09T07:42:59.481Z,57.92
2023-04-09T07:43:49.556Z,57.90
2023-04-09T07:44:39.653Z,57.94
2023-04-09T07:45:29.704Z,57.62
2023-04-09T07:46:19.964Z,57.83
2023-04-09T07:47:10.257Z,57.89
2023-04-09T07:48:00.161Z,57.99
2023-04-09T07:48:50.839Z,58.13
2023-04-09T07:49:40.462Z,58.13
2023-04-09T07:50:30.494Z,58.04
2023-04-09T07:51:20.556Z,57.92
2023-04-09T07:52:10.680Z,57.74
2023-04-09T07:53:00.710Z,57.64
2023-04-09T07:53:50.743Z,57.49
2023-04-09T07:54:40.778Z,57.40
2023-04-09T07:55:30.864Z,57.45
2023-04-09T07:56:20.915Z,57.53
2023-04-09T07:57:10.985Z,57.62
2023-04-09T07:58:01.270Z,57.76
2023-04-09T07:58:51.612Z,57.75
2023-04-09T07:59:41.398Z,57.80
2023-04-09T08:00:31.504Z,57.81
2023-04-09T08:01:21.528Z,57.76
2023-04-09T08:02:14.328Z,57.69
2023-04-09T08:03:01.832Z,57.58
2023-04-09T08:03:52.129Z,57.42
2023-04-09T08:04:42.124Z,57.56
2023-04-09T08:05:32.013Z,57.48
2023-04-09T08:06:22.339Z,57.57
2023-04-09T08:07:12.415Z,57.60
2023-04-09T08:08:02.460Z,57.67
2023-04-09T08:08:52.695Z,57.69
2023-04-09T08:09:42.566Z,57.65
2023-04-09T08:10:32.614Z,57.74
2023-04-09T08:11:22.680Z,57.44
2023-04-09T08:12:12.838Z,57.38
2023-04-09T08:13:03.041Z,57.54
2023-04-09T08:13:53.115Z,57.61
2023-04-09T08:14:43.182Z,57.56
2023-04-09T08:15:33.507Z,57.57
2023-04-09T08:16:23.649Z,57.68
2023-04-09T08:17:13.624Z,57.70
2023-04-09T08:18:03.714Z,57.66
2023-04-09T08:18:53.884Z,57.66
2023-04-09T08:19:43.773Z,57.54
2023-04-09T08:20:33.800Z,57.56
2023-04-09T08:21:23.868Z,57.71
2023-04-09T08:22:13.960Z,57.74
2023-04-09T08:23:03.984Z,57.87
2023-04-09T08:23:54.047Z,57.99
2023-04-09T08:24:44.155Z,57.77
2023-04-09T08:25:34.148Z,57.90
2023-04-09T08:26:24.211Z,57.92
2023-04-09T08:27:14.298Z,57.95
2023-04-09T08:28:04.332Z,58.00
2023-04-09T08:28:54.718Z,58.00
2023-04-09T08:29:44.456Z,57.99
2023-04-09T08:30:34.574Z,58.03
2023-04-09T08:31:24.579Z,58.17
2023-04-09T08:32:14.760Z,58.19
2023-04-09T08:33:04.685Z,58.14
2023-04-09T08:33:54.743Z,58.17
2023-04-09T08:34:44.801Z,58.22
2023-04-09T08:35:34.875Z,58.17
2023-04-09T08:36:24.991Z,58.10
2023-04-09T08:37:15.039Z,58.24
2023-04-09T08:38:05.285Z,58.27
2023-04-09T08:38:55.718Z,58.39
2023-04-09T08:39:45.393Z,58.44
2023-04-09T08:40:35.483Z,58.46
2023-04-09T08:41:25.531Z,58.48
2023-04-09T08:42:15.625Z,58.42
2023-04-09T08:43:05.652Z,58.42
2023-04-09T08:43:58.215Z,58.41
2023-04-09T08:44:45.785Z,58.40
2023-04-09T08:45:35.901Z,58.34
2023-04-09T08:46:25.938Z,58.10
2023-04-09T08:47:16.022Z,58.11
2023-04-09T08:48:06.262Z,58.24
2023-04-09T08:48:56.421Z,58.31
2023-04-09T08:49:46.263Z,58.36
2023-04-09T08:50:36.346Z,58.28
2023-04-09T08:51:26.382Z,58.42
2023-04-09T08:52:16.457Z,58.41
2023-04-09T08:53:06.497Z,58.26
2023-04-09T08:53:56.598Z,58.40
2023-04-09T08:54:46.676Z,58.27
2023-04-09T08:55:36.710Z,58.28
2023-04-09T08:56:26.738Z,58.34
2023-04-09T08:57:17.104Z,58.49
2023-04-09T08:58:07.120Z,58.60
2023-04-09T08:58:57.186Z,58.43
2023-04-09T08:59:47.223Z,58.28
2023-04-09T09:00:37.254Z,58.40
2023-04-09T09:01:27.416Z,58.25
2023-04-09T09:02:17.472Z,58.37
2023-04-09T09:03:07.530Z,58.26
2023-04-09T09:03:57.645Z,58.36
2023-04-09T09:04:47.570Z,58.20
2023-04-09T09:05:37.645Z,58.35
2023-04-09T09:06:27.940Z,58.43
2023-04-09T09:07:18.041Z,58.31
2023-04-09T09:08:08.069Z,58.31
2023-04-09T09:08:58.127Z,58.31
2023-04-09T09:09:48.196Z,58.28
2023-04-09T09:10:38.265Z,58.29
2023-04-09T09:11:28.327Z,58.25
2023-04-09T09:12:18.405Z,58.35
2023-04-09T09:13:08.437Z,58.38
2023-04-09T09:13:58.519Z,58.48
2023-04-09T09:14:48.564Z,58.53
2023-04-09T09:15:38.844Z,58.42
2023-04-09T09:16:28.928Z,58.57
2023-04-09T09:17:19.029Z,58.50
2023-04-09T09:18:09.117Z,58.46
2023-04-09T09:18:59.549Z,58.51
2023-04-09T09:19:49.133Z,58.49
2023-04-09T09:20:39.213Z,58.47
2023-04-09T09:21:29.247Z,58.15
2023-04-09T09:22:19.360Z,58.18
2023-04-09T09:23:09.395Z,58.26
2023-04-09T09:23:59.474Z,58.27
2023-04-09T09:24:50.578Z,58.22
2023-04-09T09:25:39.848Z,58.40
2023-04-09T09:26:29.931Z,58.45
2023-04-09T09:27:19.987Z,58.42
2023-04-09T09:28:10.025Z,58.48
2023-04-09T09:29:00.129Z,58.46
2023-04-09T09:29:50.111Z,58.54
2023-04-09T09:30:40.212Z,58.39
2023-04-09T09:31:30.302Z,58.48
2023-04-09T09:32:20.379Z,58.52
2023-04-09T09:33:10.390Z,58.46
2023-04-09T09:34:00.671Z,58.40
2023-04-09T09:34:50.717Z,58.42
2023-04-09T09:35:40.761Z,58.52
2023-04-09T09:36:30.831Z,58.44
2023-04-09T09:37:20.929Z,58.58
2023-04-09T09:38:10.961Z,58.58
2023-04-09T09:39:01.034Z,58.36
2023-04-09T09:39:51.109Z,57.70
2023-04-09T09:40:41.194Z,58.53
2023-04-09T09:41:31.252Z,58.25
2023-04-09T09:42:21.364Z,58.37
2023-04-09T09:43:13.446Z,58.30
2023-04-09T09:44:01.625Z,58.34
2023-04-09T09:44:51.694Z,58.26
2023-04-09T09:45:41.920Z,58.10
2023-04-09T09:46:31.885Z,58.17
2023-04-09T09:47:21.898Z,58.24
2023-04-09T09:48:11.939Z,58.31
2023-04-09T09:49:01.985Z,58.37
2023-04-09T09:49:52.244Z,58.29
2023-04-09T09:50:42.297Z,58.29
2023-04-09T09:51:32.334Z,58.16
2023-04-09T09:52:22.457Z,58.21
2023-04-09T09:53:12.450Z,58.21
2023-04-09T09:54:02.536Z,58.30
2023-04-09T09:54:52.588Z,58.36
2023-04-09T09:55:42.672Z,58.38
2023-04-09T09:56:32.853Z,58.35
2023-04-09T09:57:22.797Z,58.33
2023-04-09T09:58:12.842Z,58.27
2023-04-09T09:59:03.117Z,58.39
2023-04-09T09:59:53.187Z,58.14
2023-04-09T10:00:43.261Z,58.15
2023-04-09T10:01:33.362Z,57.56
2023-04-09T10:02:23.468Z,57.32
2023-04-09T10:03:13.465Z,57.42
2023-04-09T10:04:03.461Z,57.48
2023-04-09T10:04:53.482Z,57.25
2023-04-09T10:05:43.646Z,57.38
2023-04-09T10:06:33.679Z,57.26
2023-04-09T10:07:23.774Z,57.70
2023-04-09T10:08:13.808Z,57.68
2023-04-09T10:09:03.864Z,57.93
2023-04-09T10:09:53.924Z,57.99
2023-04-09T10:10:43.986Z,58.04
2023-04-09T10:11:34.048Z,58.00
2023-04-09T10:12:24.145Z,57.92
2023-04-09T10:13:14.177Z,57.99
2023-04-09T10:14:04.240Z,57.90
2023-04-09T10:14:54.527Z,57.87
2023-04-09T10:15:44.695Z,57.78
2023-04-09T10:16:34.648Z,57.94
2023-04-09T10:17:24.756Z,57.97
2023-04-09T10:18:14.753Z,57.97
2023-04-09T10:19:04.838Z,57.87
2023-04-09T10:19:54.854Z,57.86
2023-04-09T10:20:44.941Z,57.99
2023-04-09T10:21:35.027Z,58.08
2023-04-09T10:22:25.093Z,58.21
2023-04-09T10:23:15.123Z,58.12
2023-04-09T10:24:05.454Z,57.97
2023-04-09T10:24:55.516Z,57.67
2023-04-09T10:25:45.603Z,57.69
2023-04-09T10:26:35.625Z,58.11
2023-04-09T10:27:25.717Z,57.90
2023-04-09T10:28:15.751Z,57.25
2023-04-09T10:29:05.779Z,57.17
2023-04-09T10:29:55.802Z,57.52
2023-04-09T10:30:45.959Z,57.36
2023-04-09T10:31:36.011Z,56.95
2023-04-09T10:32:26.025Z,56.89
2023-04-09T10:33:16.039Z,56.86
2023-04-09T10:34:06.104Z,56.91
2023-04-09T10:34:56.164Z,57.19
2023-04-09T10:35:46.253Z,57.44
2023-04-09T10:36:36.302Z,57.36
2023-04-09T10:37:26.413Z,57.03
2023-04-09T10:38:16.435Z,57.40
2023-04-09T10:39:06.491Z,57.32
2023-04-09T10:39:56.690Z,57.21
2023-04-09T10:40:46.929Z,57.33
2023-04-09T10:41:36.816Z,56.96
2023-04-09T10:42:27.204Z,56.79
2023-04-09T10:43:17.189Z,56.76
2023-04-09T10:44:07.320Z,56.63
2023-04-09T10:44:57.296Z,56.64
2023-04-09T10:45:47.410Z,56.66